Погода Ист-Лос-Анджелесна неделю

Калифорния, США

01 - 07 сентября
  • 01сентября
    Сегодня
    +17°
    +28°
    Ясно и безоблачно
    ВремяПогодаТемператураВлажностьДавлениеВетер, м/сВероятность осадков
    02:00Ясно и безоблачно+20°C78 %756 мм1.0 м/с2 %
    05:00Ясно и безоблачно+17°C87 %755 мм0.3 м/с2 %
    08:00Ясно и безоблачно+19°C84 %756 мм0.3 м/с2 %
    11:00Ясно и безоблачно+25°C39 %756 мм1.3 м/с2 %
    14:00Ясно и безоблачно+28°C36 %756 мм3.3 м/с2 %
    17:00Ясно и безоблачно+27°C35 %755 мм3.2 м/с2 %
    20:00Ясно и безоблачно+22°C57 %755 мм2.4 м/с2 %
    23:00Ясно и безоблачно+20°C71 %756 мм1.0 м/с2 %
  • 02сентября
    Среда
    +18°
    +30°
    Ясно и безоблачно
    ВремяПогодаТемператураВлажностьДавлениеВетер, м/сВероятность осадков
    02:00Ясно и безоблачно+20°C76 %756 мм1.0 м/с2 %
    05:00Ясно и безоблачно+19°C80 %756 мм0.8 м/с2 %
    08:00Ясно и безоблачно+19°C75 %757 мм0.5 м/с2 %
    11:00Ясно и безоблачно+25°C44 %757 мм1.5 м/с2 %
    14:00Ясно и безоблачно+29°C32 %755 мм2.7 м/с2 %
    17:00Ясно и безоблачно+28°C34 %754 мм2.9 м/с2 %
    20:00Ясно и безоблачно+23°C43 %754 мм1.7 м/с2 %
    23:00Ясно и безоблачно+22°C57 %755 мм0.8 м/с2 %
  • 03сентября
    Четверг
    +18°
    +30°
    Ясно и безоблачно
    ВремяПогодаТемператураВлажностьДавлениеВетер, м/сВероятность осадков
    02:00Ясно и безоблачно+21°C72 %755 мм0.9 м/с2 %
    05:00Ясно и безоблачно+19°C79 %755 мм0.7 м/с2 %
    08:00Практически безоблачно+21°C78 %755 мм1.3 м/с2 %
    11:00Ясно и безоблачно+25°C43 %755 мм1.7 м/с2 %
    14:00Ясно и безоблачно+29°C32 %753 мм2.9 м/с2 %
    17:00Ясно и безоблачно+27°C51 %753 мм3.2 м/с2 %
    20:00Ясно и безоблачно+23°C65 %753 мм1.9 м/с2 %
    23:00Ясно и безоблачно+21°C75 %754 мм1.2 м/с2 %
  • 04сентября
    Пятница
    +19°
    +30°
    Ясно и безоблачно
    ВремяПогодаТемператураВлажностьДавлениеВетер, м/сВероятность осадков
    02:00Ясно и безоблачно+21°C80 %754 мм0.5 м/с2 %
    05:00Ясно и безоблачно+20°C87 %754 мм1.2 м/с2 %
    08:00Ясно и безоблачно+20°C79 %754 мм0.5 м/с2 %
    11:00Ясно и безоблачно+25°C46 %755 мм2.0 м/с2 %
    14:00Ясно и безоблачно+29°C31 %753 мм2.5 м/с2 %
    17:00Ясно и безоблачно+28°C37 %753 мм3.0 м/с2 %
    20:00Ясно и безоблачно+24°C57 %753 мм1.9 м/с2 %
    23:00Ясно и безоблачно+22°C66 %754 мм1.3 м/с2 %
  • 05сентября
    Суббота
    +22°
    +32°
    Ясно и безоблачно
    ВремяПогодаТемператураВлажностьДавлениеВетер, м/сВероятность осадков
    02:00Ясно и безоблачно+21°C72 %754 мм0.9 м/с2 %
    05:00Ясно и безоблачно+20°C81 %754 мм0.1 м/с5 %
    08:00Ясно и безоблачно+21°C69 %755 мм0.4 м/с12 %
    11:00Ясно и безоблачно+27°C29 %755 мм1.2 м/с14 %
    14:00Ясно и безоблачно+32°C16 %754 мм2.4 м/с20 %
    17:00Ясно и безоблачно+30°C24 %753 мм3.2 м/с19 %
    20:00Ясно и безоблачно+25°C39 %753 мм2.0 м/с18 %
    23:00Ясно и безоблачно+23°C49 %755 мм0.9 м/с19 %
  • 06сентября
    Воскресенье
    +19°
    +31°
    Ясно и безоблачно
    ВремяПогодаТемператураВлажностьДавлениеВетер, м/сВероятность осадков
    05:00Практически безоблачно+23°C60 %754 мм0.1 м/с33 %
    11:00Ясно и безоблачно+28°C31 %754 мм1.5 м/с39 %
    17:00Ясно и безоблачно+29°C32 %753 мм3.5 м/с34 %
    23:00Ясно и безоблачно+23°C61 %754 мм1.6 м/с24 %
  • 07сентября
    Понедельник
    +18°
    +32°
    Ясно и безоблачно
    ВремяПогодаТемператураВлажностьДавлениеВетер, м/сВероятность осадков
    05:00Ясно и безоблачно+20°C73 %754 мм1.5 м/с19 %
    11:00Ясно и безоблачно+28°C41 %754 мм2.2 м/с27 %
    17:00Ясно и безоблачно+29°C36 %753 мм3.5 м/с23 %
    23:00Ясно и безоблачно+21°C68 %753 мм1.6 м/с15 %
Мы используем cookies
Соглашаюсь